sensor_id;sensor_type;location;lat;lon;timestamp;P1;durP1;ratioP1;P2;durP2;ratioP2
62102;SDS011;48077;48.104;11.702;2023-10-08T00:01:32;276.65;;;183.13;;
62102;SDS011;48077;48.104;11.702;2023-10-08T00:07:40;259.80;;;175.93;;
62102;SDS011;48077;48.104;11.702;2023-10-08T00:10:05;254.70;;;173.40;;
62102;SDS011;48077;48.104;11.702;2023-10-08T00:12:29;244.02;;;166.52;;
62102;SDS011;48077;48.104;11.702;2023-10-08T00:14:53;242.50;;;166.50;;
62102;SDS011;48077;48.104;11.702;2023-10-08T00:17:17;234.57;;;162.77;;
62102;SDS011;48077;48.104;11.702;2023-10-08T00:19:41;230.75;;;160.52;;
62102;SDS011;48077;48.104;11.702;2023-10-08T00:22:06;231.13;;;159.82;;
62102;SDS011;48077;48.104;11.702;2023-10-08T00:24:30;233.95;;;162.05;;
62102;SDS011;48077;48.104;11.702;2023-10-08T00:26:56;235.27;;;161.48;;
62102;SDS011;48077;48.104;11.702;2023-10-08T00:29:19;237.23;;;162.52;;
62102;SDS011;48077;48.104;11.702;2023-10-08T00:31:45;225.85;;;158.07;;
62102;SDS011;48077;48.104;11.702;2023-10-08T00:34:11;219.38;;;154.25;;
62102;SDS011;48077;48.104;11.702;2023-10-08T00:36:36;216.45;;;153.40;;
62102;SDS011;48077;48.104;11.702;2023-10-08T00:38:59;223.63;;;156.23;;
62102;SDS011;48077;48.104;11.702;2023-10-08T00:41:23;218.50;;;154.05;;
62102;SDS011;48077;48.104;11.702;2023-10-08T00:43:51;218.82;;;154.25;;
62102;SDS011;48077;48.104;11.702;2023-10-08T00:46:14;219.80;;;154.63;;
62102;SDS011;48077;48.104;11.702;2023-10-08T00:48:53;219.97;;;154.53;;
62102;SDS011;48077;48.104;11.702;2023-10-08T00:51:21;221.27;;;154.98;;
62102;SDS011;48077;48.104;11.702;2023-10-08T00:53:45;216.52;;;152.55;;
62102;SDS011;48077;48.104;11.702;2023-10-08T00:56:08;220.63;;;154.88;;
62102;SDS011;48077;48.104;11.702;2023-10-08T00:58:36;209.70;;;149.32;;
62102;SDS011;48077;48.104;11.702;2023-10-08T01:01:00;208.02;;;148.60;;
62102;SDS011;48077;48.104;11.702;2023-10-08T01:03:28;214.32;;;150.80;;
62102;SDS011;48077;48.104;11.702;2023-10-08T01:05:52;212.57;;;150.07;;
62102;SDS011;48077;48.104;11.702;2023-10-08T01:08:16;207.82;;;149.07;;
62102;SDS011;48077;48.104;11.702;2023-10-08T01:10:59;213.73;;;150.38;;
62102;SDS011;48077;48.104;11.702;2023-10-08T01:13:23;206.90;;;148.73;;
62102;SDS011;48077;48.104;11.702;2023-10-08T01:15:49;208.68;;;148.65;;
62102;SDS011;48077;48.104;11.702;2023-10-08T01:18:14;205.82;;;147.65;;
62102;SDS011;48077;48.104;11.702;2023-10-08T01:20:38;202.35;;;145.98;;
62102;SDS011;48077;48.104;11.702;2023-10-08T01:23:15;208.20;;;147.88;;
62102;SDS011;48077;48.104;11.702;2023-10-08T01:28:13;224.55;;;156.50;;
62102;SDS011;48077;48.104;11.702;2023-10-08T01:30:45;214.43;;;150.68;;
62102;SDS011;48077;48.104;11.702;2023-10-08T01:33:09;211.07;;;148.43;;
62102;SDS011;48077;48.104;11.702;2023-10-08T01:35:38;201.52;;;144.88;;
62102;SDS011;48077;48.104;11.702;2023-10-08T01:38:02;203.80;;;146.05;;
62102;SDS011;48077;48.104;11.702;2023-10-08T01:40:26;199.38;;;144.00;;
62102;SDS011;48077;48.104;11.702;2023-10-08T01:42:52;199.05;;;143.80;;
62102;SDS011;48077;48.104;11.702;2023-10-08T01:45:16;202.00;;;145.55;;
62102;SDS011;48077;48.104;11.702;2023-10-08T01:47:41;205.73;;;146.75;;
62102;SDS011;48077;48.104;11.702;2023-10-08T01:50:06;195.80;;;142.75;;
62102;SDS011;48077;48.104;11.702;2023-10-08T01:52:44;197.00;;;143.00;;
62102;SDS011;48077;48.104;11.702;2023-10-08T01:55:09;198.65;;;144.23;;
62102;SDS011;48077;48.104;11.702;2023-10-08T01:57:36;197.88;;;143.82;;
62102;SDS011;48077;48.104;11.702;2023-10-08T02:00:00;196.38;;;142.43;;
62102;SDS011;48077;48.104;11.702;2023-10-08T02:02:23;199.02;;;142.95;;
62102;SDS011;48077;48.104;11.702;2023-10-08T02:04:47;196.73;;;142.98;;
62102;SDS011;48077;48.104;11.702;2023-10-08T02:07:10;197.93;;;143.68;;
62102;SDS011;48077;48.104;11.702;2023-10-08T02:09:35;201.90;;;145.52;;
62102;SDS011;48077;48.104;11.702;2023-10-08T02:12:00;199.88;;;144.20;;
62102;SDS011;48077;48.104;11.702;2023-10-08T02:14:23;196.00;;;142.82;;
62102;SDS011;48077;48.104;11.702;2023-10-08T02:16:47;203.00;;;145.70;;
62102;SDS011;48077;48.104;11.702;2023-10-08T02:19:12;204.18;;;146.60;;
62102;SDS011;48077;48.104;11.702;2023-10-08T02:21:37;201.43;;;145.65;;
62102;SDS011;48077;48.104;11.702;2023-10-08T02:24:02;204.70;;;146.25;;
62102;SDS011;48077;48.104;11.702;2023-10-08T02:26:26;204.38;;;146.73;;
62102;SDS011;48077;48.104;11.702;2023-10-08T02:28:50;204.30;;;145.82;;
62102;SDS011;48077;48.104;11.702;2023-10-08T02:31:13;209.35;;;149.27;;
62102;SDS011;48077;48.104;11.702;2023-10-08T02:33:37;204.00;;;146.30;;
62102;SDS011;48077;48.104;11.702;2023-10-08T02:36:02;207.00;;;147.80;;
62102;SDS011;48077;48.104;11.702;2023-10-08T02:38:27;205.18;;;147.65;;
62102;SDS011;48077;48.104;11.702;2023-10-08T02:40:51;216.40;;;151.43;;
62102;SDS011;48077;48.104;11.702;2023-10-08T02:43:19;206.63;;;146.00;;
62102;SDS011;48077;48.104;11.702;2023-10-08T02:45:44;205.93;;;147.82;;
62102;SDS011;48077;48.104;11.702;2023-10-08T02:48:10;211.68;;;149.75;;
62102;SDS011;48077;48.104;11.702;2023-10-08T02:50:36;213.05;;;151.13;;
62102;SDS011;48077;48.104;11.702;2023-10-08T02:53:00;216.13;;;150.90;;
62102;SDS011;48077;48.104;11.702;2023-10-08T02:55:26;215.50;;;152.40;;
62102;SDS011;48077;48.104;11.702;2023-10-08T02:57:57;215.95;;;151.10;;
62102;SDS011;48077;48.104;11.702;2023-10-08T03:00:21;207.93;;;149.07;;
62102;SDS011;48077;48.104;11.702;2023-10-08T03:02:46;218.35;;;152.43;;
62102;SDS011;48077;48.104;11.702;2023-10-08T03:05:09;212.68;;;150.05;;
62102;SDS011;48077;48.104;11.702;2023-10-08T03:07:36;217.07;;;152.98;;
62102;SDS011;48077;48.104;11.702;2023-10-08T03:10:01;218.60;;;152.75;;
62102;SDS011;48077;48.104;11.702;2023-10-08T03:12:40;212.50;;;150.68;;
62102;SDS011;48077;48.104;11.702;2023-10-08T03:15:05;217.18;;;152.82;;
62102;SDS011;48077;48.104;11.702;2023-10-08T03:17:47;222.20;;;154.40;;
62102;SDS011;48077;48.104;11.702;2023-10-08T03:20:17;222.25;;;155.05;;
62102;SDS011;48077;48.104;11.702;2023-10-08T03:22:59;221.88;;;154.77;;
62102;SDS011;48077;48.104;11.702;2023-10-08T03:25:23;219.40;;;152.90;;
62102;SDS011;48077;48.104;11.702;2023-10-08T03:27:47;216.05;;;151.55;;
62102;SDS011;48077;48.104;11.702;2023-10-08T03:30:11;211.02;;;150.45;;
62102;SDS011;48077;48.104;11.702;2023-10-08T03:32:37;216.60;;;153.07;;
62102;SDS011;48077;48.104;11.702;2023-10-08T03:35:01;215.02;;;152.00;;
62102;SDS011;48077;48.104;11.702;2023-10-08T03:37:24;213.95;;;151.93;;
62102;SDS011;48077;48.104;11.702;2023-10-08T03:40:04;221.05;;;154.27;;
62102;SDS011;48077;48.104;11.702;2023-10-08T03:42:47;219.10;;;152.95;;
62102;SDS011;48077;48.104;11.702;2023-10-08T03:45:12;224.43;;;154.30;;
62102;SDS011;48077;48.104;11.702;2023-10-08T03:47:39;225.15;;;156.32;;
62102;SDS011;48077;48.104;11.702;2023-10-08T03:50:09;219.48;;;154.18;;
62102;SDS011;48077;48.104;11.702;2023-10-08T03:52:33;224.85;;;155.65;;
62102;SDS011;48077;48.104;11.702;2023-10-08T03:55:00;220.52;;;154.43;;
62102;SDS011;48077;48.104;11.702;2023-10-08T03:57:29;221.90;;;154.95;;
62102;SDS011;48077;48.104;11.702;2023-10-08T04:00:04;221.07;;;154.50;;
62102;SDS011;48077;48.104;11.702;2023-10-08T04:02:32;218.65;;;152.77;;
62102;SDS011;48077;48.104;11.702;2023-10-08T04:05:03;224.60;;;155.27;;
62102;SDS011;48077;48.104;11.702;2023-10-08T04:07:41;224.50;;;156.35;;
62102;SDS011;48077;48.104;11.702;2023-10-08T04:10:28;231.15;;;159.18;;
62102;SDS011;48077;48.104;11.702;2023-10-08T04:13:01;230.07;;;158.32;;
62102;SDS011;48077;48.104;11.702;2023-10-08T04:15:24;227.75;;;157.10;;
62102;SDS011;48077;48.104;11.702;2023-10-08T04:17:48;231.55;;;159.10;;
62102;SDS011;48077;48.104;11.702;2023-10-08T04:20:14;225.45;;;155.98;;
62102;SDS011;48077;48.104;11.702;2023-10-08T04:22:56;235.40;;;161.10;;
62102;SDS011;48077;48.104;11.702;2023-10-08T04:25:23;218.32;;;153.48;;
62102;SDS011;48077;48.104;11.702;2023-10-08T04:27:46;221.95;;;154.73;;
62102;SDS011;48077;48.104;11.702;2023-10-08T04:30:12;224.77;;;157.13;;
62102;SDS011;48077;48.104;11.702;2023-10-08T04:32:36;224.18;;;155.75;;
62102;SDS011;48077;48.104;11.702;2023-10-08T04:35:00;216.18;;;152.88;;
62102;SDS011;48077;48.104;11.702;2023-10-08T04:37:23;224.60;;;156.48;;
62102;SDS011;48077;48.104;11.702;2023-10-08T04:39:55;227.00;;;158.18;;
62102;SDS011;48077;48.104;11.702;2023-10-08T04:42:22;226.45;;;157.10;;
62102;SDS011;48077;48.104;11.702;2023-10-08T04:44:49;219.60;;;154.13;;
62102;SDS011;48077;48.104;11.702;2023-10-08T04:47:12;221.32;;;154.70;;
62102;SDS011;48077;48.104;11.702;2023-10-08T04:49:54;231.88;;;159.65;;
62102;SDS011;48077;48.104;11.702;2023-10-08T04:52:19;224.50;;;156.07;;
62102;SDS011;48077;48.104;11.702;2023-10-08T04:54:43;224.38;;;156.38;;
62102;SDS011;48077;48.104;11.702;2023-10-08T04:57:17;229.25;;;158.55;;
62102;SDS011;48077;48.104;11.702;2023-10-08T04:59:45;225.27;;;157.20;;
62102;SDS011;48077;48.104;11.702;2023-10-08T05:02:12;226.27;;;157.57;;
62102;SDS011;48077;48.104;11.702;2023-10-08T05:04:36;231.38;;;159.25;;
62102;SDS011;48077;48.104;11.702;2023-10-08T05:07:14;231.70;;;159.93;;
62102;SDS011;48077;48.104;11.702;2023-10-08T05:09:44;228.55;;;158.18;;
62102;SDS011;48077;48.104;11.702;2023-10-08T05:12:12;230.43;;;158.73;;
62102;SDS011;48077;48.104;11.702;2023-10-08T05:14:53;229.77;;;158.50;;
62102;SDS011;48077;48.104;11.702;2023-10-08T05:17:43;234.35;;;162.00;;
62102;SDS011;48077;48.104;11.702;2023-10-08T05:20:13;235.65;;;161.15;;
62102;SDS011;48077;48.104;11.702;2023-10-08T05:22:42;235.02;;;160.75;;
62102;SDS011;48077;48.104;11.702;2023-10-08T05:25:18;238.02;;;163.93;;
62102;SDS011;48077;48.104;11.702;2023-10-08T05:27:42;232.60;;;160.13;;
62102;SDS011;48077;48.104;11.702;2023-10-08T05:30:10;233.77;;;159.85;;
62102;SDS011;48077;48.104;11.702;2023-10-08T05:32:38;231.20;;;160.77;;
62102;SDS011;48077;48.104;11.702;2023-10-08T05:35:09;237.32;;;162.93;;
62102;SDS011;48077;48.104;11.702;2023-10-08T05:37:58;242.68;;;166.05;;
62102;SDS011;48077;48.104;11.702;2023-10-08T05:40:36;239.27;;;164.35;;
62102;SDS011;48077;48.104;11.702;2023-10-08T05:43:18;240.38;;;164.77;;
62102;SDS011;48077;48.104;11.702;2023-10-08T05:46:00;244.63;;;167.40;;
62102;SDS011;48077;48.104;11.702;2023-10-08T05:48:44;244.07;;;166.55;;
62102;SDS011;48077;48.104;11.702;2023-10-08T05:51:24;243.95;;;165.90;;
62102;SDS011;48077;48.104;11.702;2023-10-08T05:54:07;246.50;;;167.77;;
62102;SDS011;48077;48.104;11.702;2023-10-08T05:56:47;245.38;;;167.15;;
62102;SDS011;48077;48.104;11.702;2023-10-08T05:59:29;248.15;;;168.55;;
62102;SDS011;48077;48.104;11.702;2023-10-08T06:02:01;242.70;;;165.70;;
62102;SDS011;48077;48.104;11.702;2023-10-08T06:04:31;246.35;;;167.23;;
62102;SDS011;48077;48.104;11.702;2023-10-08T06:07:06;247.40;;;167.27;;
62102;SDS011;48077;48.104;11.702;2023-10-08T06:09:40;244.75;;;165.82;;
62102;SDS011;48077;48.104;11.702;2023-10-08T06:12:03;249.32;;;168.93;;
62102;SDS011;48077;48.104;11.702;2023-10-08T06:14:32;248.02;;;169.18;;
62102;SDS011;48077;48.104;11.702;2023-10-08T06:17:14;251.80;;;171.15;;
62102;SDS011;48077;48.104;11.702;2023-10-08T06:19:56;250.75;;;170.55;;
62102;SDS011;48077;48.104;11.702;2023-10-08T06:22:20;248.25;;;168.93;;
62102;SDS011;48077;48.104;11.702;2023-10-08T06:24:48;243.07;;;166.15;;
62102;SDS011;48077;48.104;11.702;2023-10-08T06:27:12;248.55;;;167.38;;
62102;SDS011;48077;48.104;11.702;2023-10-08T06:29:40;241.18;;;165.13;;
62102;SDS011;48077;48.104;11.702;2023-10-08T06:32:07;250.40;;;168.43;;
62102;SDS011;48077;48.104;11.702;2023-10-08T06:34:31;235.60;;;162.32;;
62102;SDS011;48077;48.104;11.702;2023-10-08T06:36:55;238.43;;;163.15;;
62102;SDS011;48077;48.104;11.702;2023-10-08T06:39:21;245.35;;;165.02;;
62102;SDS011;48077;48.104;11.702;2023-10-08T06:41:48;241.57;;;163.60;;
62102;SDS011;48077;48.104;11.702;2023-10-08T06:44:15;244.57;;;164.10;;
62102;SDS011;48077;48.104;11.702;2023-10-08T06:46:38;234.20;;;160.18;;
62102;SDS011;48077;48.104;11.702;2023-10-08T06:49:03;233.25;;;159.43;;
62102;SDS011;48077;48.104;11.702;2023-10-08T06:51:27;229.70;;;156.88;;
62102;SDS011;48077;48.104;11.702;2023-10-08T06:53:53;230.63;;;158.15;;
62102;SDS011;48077;48.104;11.702;2023-10-08T06:56:17;225.02;;;156.20;;
62102;SDS011;48077;48.104;11.702;2023-10-08T06:58:42;225.57;;;155.50;;
62102;SDS011;48077;48.104;11.702;2023-10-08T07:01:12;229.45;;;157.43;;
62102;SDS011;48077;48.104;11.702;2023-10-08T07:03:36;225.52;;;155.75;;
62102;SDS011;48077;48.104;11.702;2023-10-08T07:06:01;227.15;;;155.52;;
62102;SDS011;48077;48.104;11.702;2023-10-08T07:08:27;224.38;;;153.98;;
62102;SDS011;48077;48.104;11.702;2023-10-08T07:10:59;230.20;;;155.57;;
62102;SDS011;48077;48.104;11.702;2023-10-08T07:13:28;232.68;;;155.55;;
62102;SDS011;48077;48.104;11.702;2023-10-08T07:15:52;223.15;;;153.23;;
62102;SDS011;48077;48.104;11.702;2023-10-08T07:18:16;216.57;;;149.48;;
62102;SDS011;48077;48.104;11.702;2023-10-08T07:20:47;219.95;;;153.10;;
62102;SDS011;48077;48.104;11.702;2023-10-08T07:23:16;216.85;;;151.38;;
62102;SDS011;48077;48.104;11.702;2023-10-08T07:25:43;220.73;;;151.23;;
62102;SDS011;48077;48.104;11.702;2023-10-08T07:28:09;210.73;;;149.05;;
62102;SDS011;48077;48.104;11.702;2023-10-08T07:30:38;215.70;;;150.70;;
62102;SDS011;48077;48.104;11.702;2023-10-08T07:33:06;207.65;;;147.15;;
62102;SDS011;48077;48.104;11.702;2023-10-08T07:35:36;211.35;;;148.73;;
62102;SDS011;48077;48.104;11.702;2023-10-08T07:38:02;214.40;;;148.60;;
62102;SDS011;48077;48.104;11.702;2023-10-08T07:40:32;218.70;;;150.82;;
62102;SDS011;48077;48.104;11.702;2023-10-08T07:43:00;212.55;;;148.27;;
62102;SDS011;48077;48.104;11.702;2023-10-08T07:45:31;208.80;;;146.18;;
62102;SDS011;48077;48.104;11.702;2023-10-08T07:47:58;209.30;;;146.50;;
62102;SDS011;48077;48.104;11.702;2023-10-08T07:50:21;215.27;;;149.18;;
62102;SDS011;48077;48.104;11.702;2023-10-08T07:52:47;197.88;;;141.88;;
62102;SDS011;48077;48.104;11.702;2023-10-08T07:55:10;206.43;;;143.55;;
62102;SDS011;48077;48.104;11.702;2023-10-08T07:57:40;202.55;;;144.65;;
62102;SDS011;48077;48.104;11.702;2023-10-08T08:00:03;198.95;;;141.40;;
62102;SDS011;48077;48.104;11.702;2023-10-08T08:02:41;205.45;;;144.82;;
62102;SDS011;48077;48.104;11.702;2023-10-08T08:05:05;191.93;;;140.45;;
62102;SDS011;48077;48.104;11.702;2023-10-08T08:07:28;193.27;;;140.05;;
62102;SDS011;48077;48.104;11.702;2023-10-08T08:09:52;197.52;;;140.63;;
62102;SDS011;48077;48.104;11.702;2023-10-08T08:12:22;195.30;;;141.35;;
62102;SDS011;48077;48.104;11.702;2023-10-08T08:14:48;201.05;;;142.65;;
62102;SDS011;48077;48.104;11.702;2023-10-08T08:17:11;187.90;;;137.60;;
62102;SDS011;48077;48.104;11.702;2023-10-08T08:19:37;189.70;;;138.02;;
62102;SDS011;48077;48.104;11.702;2023-10-08T08:22:01;189.23;;;137.50;;
62102;SDS011;48077;48.104;11.702;2023-10-08T08:24:25;194.18;;;139.00;;
62102;SDS011;48077;48.104;11.702;2023-10-08T08:26:52;199.30;;;142.15;;
62102;SDS011;48077;48.104;11.702;2023-10-08T08:29:24;190.35;;;139.02;;
62102;SDS011;48077;48.104;11.702;2023-10-08T08:31:48;196.05;;;140.80;;
62102;SDS011;48077;48.104;11.702;2023-10-08T08:34:16;196.77;;;139.93;;
62102;SDS011;48077;48.104;11.702;2023-10-08T08:36:42;186.50;;;137.85;;
62102;SDS011;48077;48.104;11.702;2023-10-08T08:39:09;192.25;;;138.55;;
62102;SDS011;48077;48.104;11.702;2023-10-08T08:41:32;192.00;;;139.25;;
62102;SDS011;48077;48.104;11.702;2023-10-08T08:44:00;182.43;;;135.13;;
62102;SDS011;48077;48.104;11.702;2023-10-08T08:46:30;190.27;;;137.98;;
62102;SDS011;48077;48.104;11.702;2023-10-08T08:48:55;193.00;;;138.93;;
62102;SDS011;48077;48.104;11.702;2023-10-08T08:51:21;193.30;;;139.10;;
62102;SDS011;48077;48.104;11.702;2023-10-08T08:53:46;184.00;;;135.50;;
62102;SDS011;48077;48.104;11.702;2023-10-08T08:56:10;185.23;;;136.52;;
62102;SDS011;48077;48.104;11.702;2023-10-08T08:58:36;184.80;;;137.55;;
62102;SDS011;48077;48.104;11.702;2023-10-08T09:01:01;188.40;;;138.30;;
62102;SDS011;48077;48.104;11.702;2023-10-08T09:03:26;190.82;;;138.00;;
62102;SDS011;48077;48.104;11.702;2023-10-08T09:05:59;189.95;;;137.98;;
62102;SDS011;48077;48.104;11.702;2023-10-08T09:08:23;191.93;;;139.45;;
62102;SDS011;48077;48.104;11.702;2023-10-08T09:10:50;186.13;;;136.68;;
62102;SDS011;48077;48.104;11.702;2023-10-08T09:13:14;190.10;;;138.70;;
62102;SDS011;48077;48.104;11.702;2023-10-08T09:15:37;197.32;;;141.93;;
62102;SDS011;48077;48.104;11.702;2023-10-08T09:18:01;197.13;;;140.32;;
62102;SDS011;48077;48.104;11.702;2023-10-08T09:20:27;186.02;;;136.43;;
62102;SDS011;48077;48.104;11.702;2023-10-08T09:23:10;190.75;;;138.30;;
62102;SDS011;48077;48.104;11.702;2023-10-08T09:25:35;194.05;;;138.77;;
62102;SDS011;48077;48.104;11.702;2023-10-08T09:27:58;188.85;;;138.63;;
62102;SDS011;48077;48.104;11.702;2023-10-08T09:30:21;185.93;;;136.10;;
62102;SDS011;48077;48.104;11.702;2023-10-08T09:32:48;197.38;;;140.30;;
62102;SDS011;48077;48.104;11.702;2023-10-08T09:35:12;194.90;;;139.38;;
62102;SDS011;48077;48.104;11.702;2023-10-08T09:37:36;186.93;;;137.70;;
62102;SDS011;48077;48.104;11.702;2023-10-08T09:40:03;196.63;;;140.70;;
62102;SDS011;48077;48.104;11.702;2023-10-08T09:42:31;191.43;;;138.30;;
62102;SDS011;48077;48.104;11.702;2023-10-08T09:44:56;188.07;;;136.85;;
62102;SDS011;48077;48.104;11.702;2023-10-08T09:47:21;190.85;;;138.60;;
62102;SDS011;48077;48.104;11.702;2023-10-08T09:49:56;189.20;;;136.68;;
62102;SDS011;48077;48.104;11.702;2023-10-08T09:52:27;186.57;;;137.20;;
62102;SDS011;48077;48.104;11.702;2023-10-08T09:54:59;184.20;;;136.38;;
62102;SDS011;48077;48.104;11.702;2023-10-08T09:57:26;181.93;;;134.77;;
62102;SDS011;48077;48.104;11.702;2023-10-08T09:59:49;176.00;;;133.55;;
62102;SDS011;48077;48.104;11.702;2023-10-08T10:02:13;179.07;;;131.45;;
62102;SDS011;48077;48.104;11.702;2023-10-08T10:04:41;172.02;;;129.70;;
62102;SDS011;48077;48.104;11.702;2023-10-08T10:07:13;175.35;;;132.70;;
62102;SDS011;48077;48.104;11.702;2023-10-08T10:09:42;177.75;;;132.48;;
62102;SDS011;48077;48.104;11.702;2023-10-08T10:12:08;164.63;;;127.07;;
62102;SDS011;48077;48.104;11.702;2023-10-08T10:15:08;171.40;;;131.57;;
62102;SDS011;48077;48.104;11.702;2023-10-08T10:17:27;177.13;;;132.35;;
62102;SDS011;48077;48.104;11.702;2023-10-08T10:19:54;177.30;;;132.55;;
62102;SDS011;48077;48.104;11.702;2023-10-08T10:22:26;168.73;;;129.48;;
62102;SDS011;48077;48.104;11.702;2023-10-08T10:24:51;176.05;;;131.23;;
62102;SDS011;48077;48.104;11.702;2023-10-08T10:27:15;171.88;;;130.25;;
62102;SDS011;48077;48.104;11.702;2023-10-08T10:29:39;170.40;;;130.18;;
62102;SDS011;48077;48.104;11.702;2023-10-08T10:32:02;171.52;;;130.20;;
62102;SDS011;48077;48.104;11.702;2023-10-08T10:34:28;171.65;;;129.45;;
62102;SDS011;48077;48.104;11.702;2023-10-08T10:36:51;170.43;;;129.13;;
62102;SDS011;48077;48.104;11.702;2023-10-08T10:39:19;170.27;;;129.70;;
62102;SDS011;48077;48.104;11.702;2023-10-08T10:41:49;180.82;;;133.10;;
62102;SDS011;48077;48.104;11.702;2023-10-08T10:44:14;177.63;;;131.52;;
62102;SDS011;48077;48.104;11.702;2023-10-08T10:46:41;186.02;;;134.60;;
62102;SDS011;48077;48.104;11.702;2023-10-08T10:49:06;170.98;;;131.00;;
62102;SDS011;48077;48.104;11.702;2023-10-08T10:51:57;180.98;;;134.82;;
62102;SDS011;48077;48.104;11.702;2023-10-08T10:54:21;180.32;;;133.32;;
62102;SDS011;48077;48.104;11.702;2023-10-08T10:56:46;179.07;;;131.65;;
62102;SDS011;48077;48.104;11.702;2023-10-08T10:59:10;183.32;;;134.55;;
62102;SDS011;48077;48.104;11.702;2023-10-08T11:01:45;191.07;;;137.13;;
62102;SDS011;48077;48.104;11.702;2023-10-08T11:04:15;176.10;;;132.57;;
62102;SDS011;48077;48.104;11.702;2023-10-08T11:06:39;187.18;;;137.23;;
62102;SDS011;48077;48.104;11.702;2023-10-08T11:09:02;182.20;;;135.25;;
62102;SDS011;48077;48.104;11.702;2023-10-08T11:11:28;192.05;;;137.50;;
62102;SDS011;48077;48.104;11.702;2023-10-08T11:13:52;174.35;;;132.10;;
62102;SDS011;48077;48.104;11.702;2023-10-08T11:16:22;183.75;;;136.57;;
62102;SDS011;48077;48.104;11.702;2023-10-08T11:18:46;183.60;;;137.35;;
62102;SDS011;48077;48.104;11.702;2023-10-08T11:21:13;182.77;;;133.73;;
62102;SDS011;48077;48.104;11.702;2023-10-08T11:23:41;186.90;;;136.95;;
62102;SDS011;48077;48.104;11.702;2023-10-08T11:26:34;178.00;;;133.45;;
62102;SDS011;48077;48.104;11.702;2023-10-08T11:29:02;182.88;;;136.70;;
62102;SDS011;48077;48.104;11.702;2023-10-08T11:31:26;180.57;;;133.82;;
62102;SDS011;48077;48.104;11.702;2023-10-08T11:33:51;192.38;;;137.18;;
62102;SDS011;48077;48.104;11.702;2023-10-08T11:36:17;191.25;;;138.27;;
62102;SDS011;48077;48.104;11.702;2023-10-08T11:38:45;182.77;;;134.88;;
62102;SDS011;48077;48.104;11.702;2023-10-08T11:41:17;187.27;;;135.88;;
62102;SDS011;48077;48.104;11.702;2023-10-08T11:43:43;182.43;;;135.13;;
62102;SDS011;48077;48.104;11.702;2023-10-08T11:46:08;184.27;;;135.63;;
62102;SDS011;48077;48.104;11.702;2023-10-08T11:48:37;201.18;;;139.73;;
62102;SDS011;48077;48.104;11.702;2023-10-08T11:51:01;192.88;;;138.60;;
62102;SDS011;48077;48.104;11.702;2023-10-08T11:53:28;189.35;;;138.30;;
62102;SDS011;48077;48.104;11.702;2023-10-08T11:55:52;191.90;;;138.23;;
62102;SDS011;48077;48.104;11.702;2023-10-08T11:58:19;195.95;;;139.95;;
62102;SDS011;48077;48.104;11.702;2023-10-08T12:00:44;180.77;;;134.27;;
62102;SDS011;48077;48.104;11.702;2023-10-08T12:03:08;199.15;;;141.75;;
62102;SDS011;48077;48.104;11.702;2023-10-08T12:05:33;188.57;;;136.52;;
62102;SDS011;48077;48.104;11.702;2023-10-08T12:08:01;190.43;;;136.57;;
62102;SDS011;48077;48.104;11.702;2023-10-08T12:10:25;192.90;;;137.50;;
62102;SDS011;48077;48.104;11.702;2023-10-08T12:12:52;190.77;;;138.85;;
62102;SDS011;48077;48.104;11.702;2023-10-08T12:15:16;186.07;;;136.60;;
62102;SDS011;48077;48.104;11.702;2023-10-08T12:17:42;194.45;;;138.30;;
62102;SDS011;48077;48.104;11.702;2023-10-08T12:20:06;187.38;;;135.50;;
62102;SDS011;48077;48.104;11.702;2023-10-08T12:22:45;193.82;;;139.70;;
62102;SDS011;48077;48.104;11.702;2023-10-08T12:25:09;185.68;;;135.77;;
62102;SDS011;48077;48.104;11.702;2023-10-08T12:27:32;187.20;;;136.57;;
62102;SDS011;48077;48.104;11.702;2023-10-08T12:29:56;184.45;;;135.25;;
62102;SDS011;48077;48.104;11.702;2023-10-08T12:32:21;177.23;;;132.32;;
62102;SDS011;48077;48.104;11.702;2023-10-08T12:34:49;185.35;;;135.95;;
62102;SDS011;48077;48.104;11.702;2023-10-08T12:37:12;185.90;;;135.07;;
62102;SDS011;48077;48.104;11.702;2023-10-08T12:39:37;178.35;;;133.48;;
62102;SDS011;48077;48.104;11.702;2023-10-08T12:42:15;193.35;;;139.48;;
62102;SDS011;48077;48.104;11.702;2023-10-08T12:44:39;194.18;;;139.30;;
62102;SDS011;48077;48.104;11.702;2023-10-08T12:47:02;197.45;;;140.52;;
62102;SDS011;48077;48.104;11.702;2023-10-08T12:49:28;189.65;;;137.75;;
62102;SDS011;48077;48.104;11.702;2023-10-08T12:51:56;194.65;;;139.38;;
62102;SDS011;48077;48.104;11.702;2023-10-08T12:54:21;194.07;;;138.98;;
62102;SDS011;48077;48.104;11.702;2023-10-08T12:56:46;193.45;;;140.20;;
62102;SDS011;48077;48.104;11.702;2023-10-08T12:59:17;204.88;;;144.68;;
62102;SDS011;48077;48.104;11.702;2023-10-08T13:01:43;194.45;;;140.50;;
62102;SDS011;48077;48.104;11.702;2023-10-08T13:04:07;200.65;;;142.20;;
62102;SDS011;48077;48.104;11.702;2023-10-08T13:06:30;201.13;;;143.07;;
62102;SDS011;48077;48.104;11.702;2023-10-08T13:09:03;206.68;;;141.15;;
62102;SDS011;48077;48.104;11.702;2023-10-08T13:11:35;197.90;;;139.27;;
62102;SDS011;48077;48.104;11.702;2023-10-08T13:14:01;206.05;;;143.10;;
62102;SDS011;48077;48.104;11.702;2023-10-08T13:16:25;194.45;;;141.48;;
62102;SDS011;48077;48.104;11.702;2023-10-08T13:18:54;201.95;;;142.80;;
62102;SDS011;48077;48.104;11.702;2023-10-08T13:21:19;197.30;;;142.10;;
62102;SDS011;48077;48.104;11.702;2023-10-08T13:23:43;193.02;;;140.77;;
62102;SDS011;48077;48.104;11.702;2023-10-08T13:26:07;202.88;;;141.63;;
62102;SDS011;48077;48.104;11.702;2023-10-08T13:28:31;196.43;;;141.50;;
62102;SDS011;48077;48.104;11.702;2023-10-08T13:30:56;198.63;;;142.20;;
62102;SDS011;48077;48.104;11.702;2023-10-08T13:33:20;209.13;;;143.10;;
62102;SDS011;48077;48.104;11.702;2023-10-08T13:35:47;197.23;;;141.32;;
62102;SDS011;48077;48.104;11.702;2023-10-08T13:38:12;198.30;;;141.43;;
62102;SDS011;48077;48.104;11.702;2023-10-08T13:40:39;206.43;;;144.07;;
62102;SDS011;48077;48.104;11.702;2023-10-08T13:43:06;195.73;;;140.85;;
62102;SDS011;48077;48.104;11.702;2023-10-08T13:45:29;195.00;;;139.93;;
62102;SDS011;48077;48.104;11.702;2023-10-08T13:47:55;197.02;;;141.05;;
62102;SDS011;48077;48.104;11.702;2023-10-08T13:50:19;204.18;;;142.82;;
62102;SDS011;48077;48.104;11.702;2023-10-08T13:52:44;201.63;;;142.75;;